Accueil
METAR-TAF:

METAR-TAF

Aéroports :

Bogue_Field/MCALF

Swansboro, Caroline du Nord, États-Unis

latitude: 34-41-34N, longitude: 077-01-46W, altitude: 6 m

Observation

Le bulletin a été fait il y a 32 minutes, à 15:57 UTC
Vent 9 kt de est/sud-est
Température 31°C
Humidité 59%
Pression 1023 hPa
Visibilité: 16.1 km
Nuages épars à une hauteur de 4200 ft
Nuages fragmentés à une hauteur de 4800 ft
Nuages fragmentés à une hauteur de 6000 ft

METAR: KNJM 161557Z AUTO 12009KT 10SM SCT042 BKN048 BKN060 31/22 A3020 RMK AO2 SLP230 T03060217 $

Heure: 12:29 (16:29 UTC)


TAF: absent

Observations et prévisions météorologiques de plus de 4000 aéroports (messages METAR et TAF).

Les stations disponibles sont représentées par des disques jaunes et rouges sur la carte.

Passer la souris dessus pour voir le nom de la station.

Cliquer dessus pour voir les observations et prévisions météorologiques.

Pour changer de carte: cliquez sur les boutons verts avec une croix noire pour zoomer, sur le bouton vert avec un tiret pour effectuer un zoom arrière, ou sur les flèches vertes pour les cartes adjacentes.


METAR-TAF: